LFRS Airport Information

Runway Information
Runway 03 Length 9514 ft width 148 ft
Elevation 73 ft Threshold 0 ft Heading 28
Runway 21 Length 9514 ft Width 148 ft
Elevation 86 ft Threshold 694 ft Heading 208
Airport Frequencies
Type APP Name APP Frequency 130.275 MHZ
Type ATIS Name ATIS Frequency 126.925 MHZ
Type GND Name GND Frequency 121.875 MHZ
Type INFO Name INFO Frequency 129.875 MHZ
Type TWR Name TWR Frequency 118.65 MHZ
Airport Navaids
Type NDB Name Nantes Frequency 369 KHZ
Type VOR-DME Name Nantes Frequency 115500 KHZ
Airport Weather Information & NOTAM
ADDS - METARS form results

(1906 UTC 17 July 2019)
Data provider http://aviationweather.gov/metar/data/
 
METAR text: LFRS 171900Z AUTO 26010KT CAVOK 20/13 Q1014 NOSIG
Conditions at: LFRS (NANTES/CHATEAU B, FR) observed 1900 UTC 17 July 2019
Temperature: 20.0°C (68°F)
Dewpoint: 13.0°C (55°F) [RH = 64%]
Pressure (altimeter): 29.94 inches Hg (1014.0 mb)
Winds: from the W (260 degrees) at 12 MPH (10 knots; 5.1 m/s)
Visibility: 6 or more miles (10+ km)
Ceiling: ceiling and visibility are OK
Clouds: unknown
Weather: no significant weather observed at this time

METAR text: LFRS 171830Z AUTO 26010KT CAVOK 22/13 Q1014 NOSIG
Conditions at: LFRS (NANTES/CHATEAU B, FR) observed 1830 UTC 17 July 2019
Temperature: 22.0°C (72°F)
Dewpoint: 13.0°C (55°F) [RH = 57%]
Pressure (altimeter): 29.94 inches Hg (1014.0 mb)
Winds: from the W (260 degrees) at 12 MPH (10 knots; 5.1 m/s)
Visibility: 6 or more miles (10+ km)
Ceiling: ceiling and visibility are OK
Clouds: unknown
Weather: no significant weather observed at this time

Forecast for: LFRS (NANTES/CHATEAU B, FR)
Text: TAF LFRS 171700Z 1718/1824 26011KT CAVOK
Forecast period: 1800 to 2100 UTC 17 July 2019
Forecast type: FROM: standard forecast or significant change
Winds: from the W (260 degrees) at 13 MPH (11 knots; 5.7 m/s)
Visibility: 6 or more miles 10+ km)
Ceiling: unknown
Clouds: missing
Weather: NSW  (no significant weather)
Text: BECMG 1721/1723 VRB03KT
Forecast period: 2100 UTC 17 July 2019 to 0800 UTC 18 July 2019
Forecast type: BECOMING: Conditions expected to become as follows by 2300 UTC 17 July 2019
Winds: variable direction winds at 3 MPH (3 knots; 1.5 m/s)
Visibility: 6 or more miles 10+ km)
Ceiling: unknown
Clouds: missing
Weather: NSW  (no significant weather)
Text: BECMG 1808/1810 24010KT
Forecast period: 0800 UTC 18 July 2019 to 0000 UTC 19 July 2019
Forecast type: BECOMING: Conditions expected to become as follows by 1000 UTC 18 July 2019
Winds: from the WSW (240 degrees) at 12 MPH (10 knots; 5.1 m/s)
Visibility: 6 or more miles 10+ km)
Ceiling: unknown
Clouds: missing
Weather: NSW  (no significant weather)
Text: TEMPO 1813/1816 4500 -RA BKN012
Forecast period: 1300 to 1600 UTC 18 July 2019
Forecast type: TEMPORARY: The following changes expected for less than half the time period
Visibility: 2.80 miles (4.51 km)
Ceiling: 1200 feet AGL
Clouds: broken clouds at 1200 feet AGL
Weather: -RA  (light rain)